Time;durP1;ratioP1;P1;durP2;ratioP2;P2;SDS_P1;SDS_P2;PMS_P1;PMS_P2;Temp;Humidity;BMP_temperature;BMP_pressure;BME280_temperature;BME280_humidity;BME280_pressure;Samples;Min_cycle;Max_cycle;Signal;HPM_P1;HPM_P2
2023/03/25 00:00:17;;;;;;;;;1.50;0.75;;;;;12.42;59.97;100561.69;6277383;22;45260;-68
2023/03/25 00:02:48;;;;;;;;;0.00;0.00;;;;;12.32;60.07;100544.28;6248789;22;47599;-68
2023/03/25 00:05:15;;;;;;;;;1.00;0.00;;;;;12.29;60.12;100539.94;6277412;22;45594;-68
2023/03/25 00:07:41;;;;;;;;;0.00;0.00;;;;;12.47;59.78;100562.38;6276942;22;45321;-69
2023/03/25 00:10:08;;;;;;;;;1.75;1.00;;;;;12.36;59.95;100551.25;6248941;22;45739;-68
2023/03/25 00:12:33;;;;;;;;;3.25;0.00;;;;;12.27;60.14;100536.44;6250608;22;46861;-68
2023/03/25 00:14:58;;;;;;;;;1.50;0.50;;;;;12.41;60.06;100563.50;6250802;22;45606;-69
2023/03/25 00:17:27;;;;;;;;;0.00;0.00;;;;;12.23;60.44;100543.75;6278802;22;45596;-68
2023/03/25 00:19:54;;;;;;;;;0.00;0.00;;;;;12.40;60.46;100574.28;6250944;22;46193;-68
2023/03/25 00:22:20;;;;;;;;;0.00;0.00;;;;;12.39;60.37;100561.81;6278635;22;45410;-69
2023/03/25 00:24:46;;;;;;;;;0.00;0.00;;;;;12.34;60.47;100555.78;6251288;22;45406;-68
2023/03/25 00:27:13;;;;;;;;;1.00;0.00;;;;;12.25;60.69;100534.78;6276397;22;45531;-68
2023/03/25 00:29:40;;;;;;;;;2.75;1.50;;;;;12.51;60.43;100590.75;6276586;22;45384;-68
2023/03/25 00:32:05;;;;;;;;;2.50;0.75;;;;;12.47;60.91;100593.63;6277943;22;45305;-68
2023/03/25 00:34:30;;;;;;;;;2.00;0.75;;;;;12.46;60.68;100590.06;6278236;22;45245;-68
2023/03/25 00:36:56;;;;;;;;;1.00;1.00;;;;;12.23;60.69;100548.25;6278127;22;52395;-68
2023/03/25 00:39:21;;;;;;;;;0.00;0.00;;;;;12.46;60.65;100586.53;6251050;22;45313;-68
2023/03/25 00:41:47;;;;;;;;;2.00;1.00;;;;;12.51;60.80;100585.41;6278211;22;45367;-68
2023/03/25 00:44:13;;;;;;;;;1.00;1.00;;;;;12.38;60.45;100557.44;6278210;22;45212;-68
2023/03/25 00:46:38;;;;;;;;;2.25;1.00;;;;;12.24;60.98;100541.94;6250503;22;45465;-68
2023/03/25 00:49:04;;;;;;;;;2.00;0.00;;;;;12.52;61.05;100586.28;6278462;22;45295;-68
2023/03/25 00:51:32;;;;;;;;;1.75;0.00;;;;;12.31;61.13;100548.78;6277859;22;46380;-69
2023/03/25 00:54:02;;;;;;;;;0.50;0.50;;;;;12.51;61.01;100588.09;6276826;22;45512;-68
2023/03/25 00:56:29;;;;;;;;;0.75;0.50;;;;;12.39;61.27;100570.72;6276612;22;45377;-68
2023/03/25 00:58:55;;;;;;;;;2.00;1.00;;;;;12.46;61.51;100582.03;6250970;22;45647;-68
2023/03/25 01:01:26;;;;;;;;;1.00;1.00;;;;;12.30;61.85;100563.09;6277448;22;45320;-68
2023/03/25 01:03:58;;;;;;;;;1.50;0.00;;;;;12.43;61.55;100576.84;6278083;22;45365;-68
2023/03/25 01:06:34;;;;;;;;;0.25;0.00;;;;;12.42;62.27;100581.28;6277680;22;45257;-68
2023/03/25 01:09:02;;;;;;;;;0.75;0.75;;;;;12.44;61.84;100589.25;6278049;22;45449;-68
2023/03/25 01:11:33;;;;;;;;;1.67;0.67;;;;;12.45;61.83;100588.34;6248886;22;47066;-69
2023/03/25 01:13:58;;;;;;;;;2.00;0.00;;;;;12.43;62.03;100584.88;6277852;22;45172;-68
2023/03/25 01:16:24;;;;;;;;;1.75;0.75;;;;;12.34;62.30;100567.38;6277821;22;45296;-68
2023/03/25 01:18:49;;;;;;;;;2.50;0.25;;;;;12.37;62.33;100577.94;6277568;22;45267;-68
2023/03/25 01:21:15;;;;;;;;;2.00;1.00;;;;;12.40;62.30;100579.63;6276488;22;45332;-68
2023/03/25 01:23:40;;;;;;;;;0.50;0.50;;;;;12.37;62.48;100585.97;6278057;22;45282;-68
2023/03/25 01:26:06;;;;;;;;;1.00;0.00;;;;;12.39;62.30;100583.25;6278179;22;45407;-68
2023/03/25 01:28:32;;;;;;;;;1.00;0.25;;;;;12.44;62.66;100589.25;6278209;22;45305;-68
2023/03/25 01:31:02;;;;;;;;;2.25;0.50;;;;;12.25;62.80;100550.84;6278117;22;45252;-68
2023/03/25 01:33:27;;;;;;;;;3.00;2.00;;;;;12.31;62.76;100551.47;6278259;22;45502;-68
2023/03/25 01:35:53;;;;;;;;;2.00;2.00;;;;;12.50;62.85;100582.78;6278021;22;45229;-68
2023/03/25 01:38:19;;;;;;;;;1.00;1.00;;;;;12.45;62.86;100574.94;6278318;22;45258;-68
2023/03/25 01:40:50;;;;;;;;;1.00;0.00;;;;;12.39;62.92;100561.81;6250152;22;47883;-68
2023/03/25 01:43:15;;;;;;;;;2.50;1.00;;;;;12.08;63.09;100506.94;6249943;22;45327;-68
2023/03/25 01:45:40;;;;;;;;;0.50;0.50;;;;;12.42;63.10;100565.22;6250810;22;45767;-68
2023/03/25 01:48:16;;;;;;;;;0.00;0.00;;;;;12.39;63.37;100556.47;6277826;22;45426;-68
2023/03/25 01:50:46;;;;;;;;;0.00;0.00;;;;;12.48;63.27;100569.47;6250745;22;46622;-68
2023/03/25 01:53:11;;;;;;;;;0.00;0.00;;;;;12.27;63.31;100520.41;6276145;22;45344;-68
2023/03/25 01:55:39;;;;;;;;;1.50;0.00;;;;;12.27;63.36;100515.03;6278547;22;45317;-68
2023/03/25 01:58:09;;;;;;;;;2.50;1.00;;;;;12.46;63.26;100549.91;6250320;22;45401;-68
2023/03/25 02:00:36;;;;;;;;;2.25;0.75;;;;;12.40;63.28;100539.47;6277787;22;45490;-68
2023/03/25 02:03:02;;;;;;;;;3.00;1.00;;;;;12.41;63.49;100539.41;6277621;22;45268;-68
2023/03/25 02:05:38;;;;;;;;;4.00;1.00;;;;;12.50;63.32;100554.22;6278119;22;45256;-68
2023/03/25 02:08:07;;;;;;;;;0.75;0.75;;;;;12.47;63.62;100546.31;6277866;22;45513;-68
2023/03/25 02:10:34;;;;;;;;;0.00;0.00;;;;;12.41;63.59;100546.56;6276171;22;47890;-68
2023/03/25 02:13:01;;;;;;;;;4.00;1.50;;;;;12.40;63.61;100556.41;6249620;22;45232;-68
2023/03/25 02:15:37;;;;;;;;;1.00;1.00;;;;;12.31;64.07;100539.88;6250461;22;45220;-68
2023/03/25 02:18:28;;;;;;;;;0.50;0.50;;;;;12.10;63.91;100502.38;6277619;22;45286;-68
2023/03/25 02:21:29;;;;;;;;;2.00;0.25;;;;;12.10;64.19;100505.06;6250070;22;48062;-68
2023/03/25 02:24:24;;;;;;;;;2.75;0.50;;;;;12.12;64.01;100495.16;6250644;22;45251;-68
2023/03/25 02:27:12;;;;;;;;;3.75;1.50;;;;;12.36;63.92;100532.50;6277241;22;45392;-68
2023/03/25 02:29:54;;;;;;;;;1.25;1.25;;;;;12.41;64.27;100546.56;6277983;22;45362;-68
2023/03/25 02:32:38;;;;;;;;;2.00;0.75;;;;;12.40;64.38;100532.31;6272952;22;47659;-68
2023/03/25 02:35:39;;;;;;;;;3.50;1.00;;;;;12.18;64.44;100496.72;6249634;22;45422;-68
2023/03/25 02:38:08;;;;;;;;;3.75;2.00;;;;;12.37;64.61;100536.94;6277461;22;45269;-68
2023/03/25 02:40:45;;;;;;;;;1.75;0.75;;;;;12.39;64.13;100527.88;6250454;22;45639;-68
2023/03/25 02:43:19;;;;;;;;;2.25;1.00;;;;;12.00;64.87;100485.84;6277656;22;45385;-68
2023/03/25 02:45:50;;;;;;;;;1.25;1.25;;;;;12.08;64.80;100492.69;6250026;22;45575;-68
2023/03/25 02:48:24;;;;;;;;;0.00;0.00;;;;;12.21;64.70;100508.16;6250127;22;45341;-69
2023/03/25 02:50:54;;;;;;;;;1.00;1.00;;;;;12.09;64.76;100494.44;6278253;22;45197;-69
2023/03/25 02:53:27;;;;;;;;;3.00;1.50;;;;;12.27;64.95;100507.00;6249828;22;46997;-69
2023/03/25 02:55:58;;;;;;;;;3.25;2.50;;;;;12.32;64.70;100522.88;6278344;22;45403;-68
2023/03/25 02:58:26;;;;;;;;;2.00;1.00;;;;;12.38;64.89;100531.53;6278031;22;45320;-69
2023/03/25 03:00:57;;;;;;;;;2.75;0.25;;;;;12.17;64.98;100494.97;6278009;22;45257;-68
2023/03/25 03:03:23;;;;;;;;;0.00;0.00;;;;;12.23;64.91;100497.41;6276835;22;45395;-68
2023/03/25 03:05:50;;;;;;;;;0.00;0.00;;;;;12.23;64.73;100500.94;6250195;22;45271;-68
2023/03/25 03:08:41;;;;;;;;;1.75;0.75;;;;;12.42;64.97;100525.06;6277289;22;45271;-69
2023/03/25 03:11:19;;;;;;;;;1.00;0.50;;;;;12.43;64.95;100531.31;6277707;22;45331;-68
2023/03/25 03:14:09;;;;;;;;;2.25;1.00;;;;;12.44;64.98;100525.00;6277685;22;46207;-69
2023/03/25 03:16:50;;;;;;;;;3.50;0.50;;;;;12.47;65.18;100532.06;6277512;22;45604;-68
2023/03/25 03:19:33;;;;;;;;;2.00;0.00;;;;;12.45;64.98;100529.44;6250200;22;45456;-68
2023/03/25 03:22:13;;;;;;;;;2.00;1.00;;;;;12.26;65.12;100501.72;6277238;22;45434;-68
2023/03/25 03:24:43;;;;;;;;;3.25;1.00;;;;;12.42;65.11;100529.56;6249522;22;47311;-68
2023/03/25 03:27:13;;;;;;;;;2.75;1.00;;;;;12.40;65.30;100529.63;6249299;22;45223;-68
2023/03/25 03:29:45;;;;;;;;;2.50;1.00;;;;;12.39;65.04;100532.38;6278252;22;45275;-69
2023/03/25 03:32:29;;;;;;;;;1.00;1.00;;;;;12.38;65.32;100544.91;6277175;22;45533;-68
2023/03/25 03:35:00;;;;;;;;;5.00;1.00;;;;;12.27;65.40;100523.06;6276936;22;45473;-68
2023/03/25 03:37:33;;;;;;;;;1.75;0.75;;;;;12.17;65.52;100508.34;6249975;22;45358;-68
2023/03/25 03:40:04;;;;;;;;;2.50;2.00;;;;;12.21;65.52;100513.50;6276015;22;45448;-68
2023/03/25 03:42:51;;;;;;;;;2.00;0.75;;;;;12.35;65.42;100534.31;6277336;22;45253;-68
2023/03/25 03:45:25;;;;;;;;;2.75;0.75;;;;;12.37;65.27;100539.63;6277729;22;45319;-68
2023/03/25 03:47:54;;;;;;;;;2.50;1.00;;;;;12.27;65.36;100533.78;6278116;22;45669;-69
2023/03/25 03:50:27;;;;;;;;;2.00;1.00;;;;;12.03;65.38;100493.75;6278538;22;45321;-68
2023/03/25 03:53:16;;;;;;;;;2.25;1.00;;;;;12.34;65.20;100537.06;6278355;22;45317;-68
2023/03/25 03:55:46;;;;;;;;;2.00;1.75;;;;;12.35;65.22;100533.47;6276777;22;47014;-69
2023/03/25 03:58:24;;;;;;;;;0.00;0.00;;;;;12.03;65.24;100490.22;6278631;22;45226;-68
2023/03/25 04:00:53;;;;;;;;;1.00;1.00;;;;;12.36;65.23;100543.22;6251146;22;45343;-69
2023/03/25 04:03:27;;;;;;;;;1.25;0.00;;;;;12.30;65.05;100530.97;6250467;22;45886;-68
2023/03/25 04:05:59;;;;;;;;;0.00;0.00;;;;;12.25;64.95;100530.31;6278901;22;45413;-69
2023/03/25 04:08:41;;;;;;;;;4.50;1.00;;;;;12.12;65.14;100503.19;6278334;22;45398;-68
2023/03/25 04:11:15;;;;;;;;;2.00;0.50;;;;;12.34;64.81;100547.78;6251423;22;45319;-68
2023/03/25 04:13:46;;;;;;;;;1.00;0.75;;;;;12.25;64.71;100537.47;6278477;22;45240;-68
2023/03/25 04:16:11;;;;;;;;;0.50;0.00;;;;;12.17;64.94;100538.66;6278679;22;46324;-68
2023/03/25 04:18:38;;;;;;;;;0.00;0.00;;;;;12.07;64.96;100517.72;6278505;22;45465;-68
2023/03/25 04:21:04;;;;;;;;;0.50;0.25;;;;;12.28;64.95;100553.38;6251481;22;45299;-69
2023/03/25 04:23:29;;;;;;;;;0.50;0.50;;;;;12.13;65.00;100520.09;6278465;22;45305;-68
2023/03/25 04:25:55;;;;;;;;;0.00;0.00;;;;;12.08;64.73;100517.66;6250835;22;47161;-68
2023/03/25 04:28:22;;;;;;;;;0.50;0.50;;;;;12.28;64.56;100562.28;6278298;22;45423;-68
2023/03/25 04:30:54;;;;;;;;;2.25;1.00;;;;;12.19;64.64;100539.44;6279129;22;45496;-68
2023/03/25 04:33:21;;;;;;;;;1.75;0.00;;;;;12.34;64.60;100562.00;6250398;22;45388;-68
2023/03/25 04:35:49;;;;;;;;;2.25;0.00;;;;;12.29;64.68;100549.78;6278779;22;45555;-68
2023/03/25 04:38:15;;;;;;;;;3.00;0.00;;;;;12.14;64.58;100533.41;6276720;22;45385;-68
2023/03/25 04:40:45;;;;;;;;;2.00;0.00;;;;;12.19;64.27;100547.47;6279004;22;45310;-68
2023/03/25 04:43:11;;;;;;;;;0.00;0.00;;;;;12.25;64.31;100562.41;6278996;22;45554;-68
2023/03/25 04:45:36;;;;;;;;;0.00;0.00;;;;;12.29;64.31;100569.38;6279499;22;45877;-68
2023/03/25 04:48:04;;;;;;;;;2.00;1.00;;;;;12.21;64.41;100556.34;6278267;22;45248;-68
2023/03/25 04:50:31;;;;;;;;;0.50;0.50;;;;;12.40;64.36;100588.53;6279696;22;45536;-68
2023/03/25 04:52:59;;;;;;;;;1.50;1.00;;;;;12.17;64.26;100548.50;6279628;22;45519;-68
2023/03/25 04:55:25;;;;;;;;;1.25;0.00;;;;;12.37;64.24;100585.13;6251224;22;46035;-68
2023/03/25 04:57:52;;;;;;;;;0.50;0.00;;;;;12.39;64.37;100580.56;6250996;22;45355;-68
2023/03/25 05:00:21;;;;;;;;;0.00;0.00;;;;;12.49;64.02;100597.09;6279791;22;45253;-68
2023/03/25 05:02:48;;;;;;;;;2.00;0.00;;;;;12.24;64.05;100558.00;6278943;22;45407;-68
2023/03/25 05:05:17;;;;;;;;;1.75;0.00;;;;;12.30;63.82;100562.22;6279094;22;45454;-68
2023/03/25 05:07:45;;;;;;;;;1.25;0.00;;;;;12.29;63.90;100566.69;6278400;22;45360;-68
2023/03/25 05:10:11;;;;;;;;;1.75;0.00;;;;;12.15;63.98;100540.53;6279143;22;45418;-68
2023/03/25 05:12:36;;;;;;;;;1.75;0.00;;;;;12.20;63.98;100554.56;6278724;22;45275;-68
2023/03/25 05:15:02;;;;;;;;;0.00;0.00;;;;;12.20;63.86;100549.22;6277370;22;46486;-68
2023/03/25 05:17:28;;;;;;;;;0.00;0.00;;;;;12.31;63.77;100572.88;6278370;22;45189;-69
2023/03/25 05:19:55;;;;;;;;;0.00;0.00;;;;;12.44;63.62;100601.78;6279077;22;45249;-68
2023/03/25 05:22:21;;;;;;;;;0.50;0.00;;;;;12.48;63.55;100606.97;6279358;22;45256;-68
2023/03/25 05:24:47;;;;;;;;;0.00;0.00;;;;;12.47;63.79;100612.38;6278536;22;46206;-69
2023/03/25 05:27:12;;;;;;;;;2.00;0.00;;;;;12.19;63.63;100568.88;6278106;22;45351;-68
2023/03/25 05:29:37;;;;;;;;;0.00;0.00;;;;;12.34;63.56;100588.78;6278900;22;45452;-68
2023/03/25 05:32:03;;;;;;;;;0.00;0.00;;;;;12.34;63.60;100587.91;6279161;22;45333;-68
2023/03/25 05:34:29;;;;;;;;;0.00;0.00;;;;;12.26;63.22;100576.66;6278641;22;45500;-69
2023/03/25 05:36:55;;;;;;;;;0.00;0.00;;;;;12.24;62.99;100571.38;6278341;22;45370;-68
2023/03/25 05:39:20;;;;;;;;;0.00;0.00;;;;;12.19;62.85;100584.94;6279431;22;45339;-68
2023/03/25 05:41:46;;;;;;;;;1.00;0.00;;;;;12.27;63.04;100592.66;6279243;22;45254;-68
2023/03/25 05:44:18;;;;;;;;;1.50;0.00;;;;;12.39;63.02;100624.25;6279359;22;46138;-68
2023/03/25 05:46:43;;;;;;;;;0.75;0.25;;;;;12.39;62.83;100623.38;6278788;22;45438;-68
2023/03/25 05:49:08;;;;;;;;;0.00;0.00;;;;;12.51;62.92;100648.78;6279499;22;45428;-68
2023/03/25 05:51:36;;;;;;;;;1.75;0.00;;;;;12.28;62.74;100615.81;6251103;22;45383;-68
2023/03/25 05:54:07;;;;;;;;;0.75;0.00;;;;;12.31;62.54;100615.69;6278609;22;45374;-68
2023/03/25 05:56:33;;;;;;;;;1.00;0.00;;;;;12.48;63.21;100656.94;6278601;22;45411;-68
2023/03/25 05:58:58;;;;;;;;;0.00;0.00;;;;;12.36;62.77;100632.44;6251027;22;45479;-68
2023/03/25 06:01:24;;;;;;;;;0.00;0.00;;;;;12.17;62.76;100613.56;6276559;22;45296;-68
2023/03/25 06:03:49;;;;;;;;;0.00;0.00;;;;;12.26;62.90;100627.50;6279102;22;45346;-68
2023/03/25 06:06:18;;;;;;;;;4.00;0.00;;;;;12.27;62.90;100622.09;6251120;22;45752;-68
2023/03/25 06:08:45;;;;;;;;;0.25;0.00;;;;;12.34;62.36;100630.75;6278623;22;45201;-68
2023/03/25 06:11:14;;;;;;;;;0.50;0.50;;;;;12.39;62.59;100650.16;6250833;22;45319;-68
2023/03/25 06:13:48;;;;;;;;;0.00;0.00;;;;;12.53;62.31;100677.25;6250523;22;47164;-68
2023/03/25 06:16:17;;;;;;;;;1.50;0.50;;;;;12.52;62.45;100677.31;6250434;22;45355;-68
2023/03/25 06:18:49;;;;;;;;;2.00;0.25;;;;;12.26;62.41;100635.53;6278720;22;45317;-68
2023/03/25 06:21:18;;;;;;;;;0.75;0.00;;;;;12.28;62.06;100647.94;6279258;22;45384;-68
2023/03/25 06:23:44;;;;;;;;;0.25;0.00;;;;;12.33;62.39;100661.09;6278699;22;45635;-68
2023/03/25 06:26:10;;;;;;;;;3.75;1.00;;;;;12.45;62.43;100690.06;6251004;22;45517;-69
2023/03/25 06:28:35;;;;;;;;;0.00;0.00;;;;;12.20;62.36;100661.63;6278376;22;45233;-68
2023/03/25 06:31:05;;;;;;;;;1.00;1.00;;;;;12.38;62.64;100691.25;6278208;22;45583;-68
2023/03/25 06:33:31;;;;;;;;;0.25;0.25;;;;;12.42;62.38;100703.56;6278846;22;46409;-68
2023/03/25 06:35:56;;;;;;;;;0.00;0.00;;;;;12.19;62.51;100667.91;6250686;22;45952;-69
2023/03/25 06:38:22;;;;;;;;;1.00;0.75;;;;;12.46;62.37;100707.00;6277967;22;45418;-68
2023/03/25 06:40:47;;;;;;;;;1.00;0.00;;;;;12.31;62.59;100681.72;6278672;22;45366;-68
2023/03/25 06:43:13;;;;;;;;;0.50;0.50;;;;;12.45;62.27;100706.13;6250364;22;47948;-68
2023/03/25 06:45:38;;;;;;;;;1.00;1.00;;;;;12.30;62.37;100683.53;6278505;22;44621;-68
2023/03/25 06:48:04;;;;;;;;;2.75;0.00;;;;;12.26;62.30;100684.56;6275627;22;45322;-69
2023/03/25 06:50:31;;;;;;;;;0.00;0.00;;;;;12.19;62.44;100675.06;6277839;22;45358;-68
2023/03/25 06:52:57;;;;;;;;;1.50;0.00;;;;;12.26;62.25;100697.97;6250133;22;48219;-68
2023/03/25 06:55:22;;;;;;;;;1.50;0.00;;;;;12.45;62.61;100730.22;6250329;22;45480;-68
2023/03/25 06:57:48;;;;;;;;;1.00;1.00;;;;;12.36;62.40;100720.78;6249888;22;45630;-68
2023/03/25 07:00:13;;;;;;;;;2.75;1.00;;;;;12.23;62.27;100690.06;6275708;22;45475;-68
2023/03/25 07:02:39;;;;;;;;;1.00;0.00;;;;;12.19;62.28;100677.72;6277548;22;45390;-68
2023/03/25 07:05:06;;;;;;;;;4.00;1.75;;;;;12.41;62.46;100717.88;6277973;22;45232;-68
2023/03/25 07:07:31;;;;;;;;;0.75;0.00;;;;;12.20;62.45;100683.03;6277317;22;45337;-68
2023/03/25 07:09:57;;;;;;;;;0.75;0.00;;;;;12.22;62.17;100675.81;6278053;22;45374;-68
2023/03/25 07:12:22;;;;;;;;;2.00;0.00;;;;;12.40;62.49;100727.72;6277899;22;45406;-68
2023/03/25 07:14:56;;;;;;;;;3.25;0.00;;;;;12.45;62.22;100732.03;6277516;22;45370;-68
2023/03/25 07:17:22;;;;;;;;;1.00;0.00;;;;;12.26;62.30;100707.78;6276593;22;45272;-68
2023/03/25 07:19:48;;;;;;;;;1.00;0.75;;;;;12.23;62.30;100684.72;6278624;22;45295;-68
2023/03/25 07:22:14;;;;;;;;;0.00;0.00;;;;;12.39;62.29;100714.41;6278681;22;45392;-68
2023/03/25 07:24:40;;;;;;;;;0.00;0.00;;;;;12.51;62.23;100727.31;6278646;22;45426;-68
2023/03/25 07:27:05;;;;;;;;;0.75;0.00;;;;;12.53;62.25;100736.16;6278773;22;45295;-69
2023/03/25 07:29:31;;;;;;;;;3.00;0.00;;;;;12.34;62.16;100698.53;6279127;22;45217;-68
2023/03/25 07:31:56;;;;;;;;;1.00;1.00;;;;;12.32;61.93;100689.69;6249626;22;48014;-68
2023/03/25 07:34:22;;;;;;;;;2.50;1.00;;;;;12.32;62.09;100694.19;6278150;22;45238;-68
2023/03/25 07:36:47;;;;;;;;;2.75;0.00;;;;;12.50;62.01;100733.59;6278280;22;45262;-68
2023/03/25 07:39:13;;;;;;;;;1.50;0.50;;;;;12.57;62.12;100748.47;6252079;22;45450;-78
2023/03/25 07:41:38;;;;;;;;;0.75;0.50;;;;;12.59;61.91;100748.41;6281530;22;46190;-75
2023/03/25 07:44:04;;;;;;;;;0.00;0.00;;;;;12.38;61.55;100721.56;6253418;22;45834;-76
2023/03/25 07:46:29;;;;;;;;;0.00;0.00;;;;;12.28;61.57;100700.56;6253288;22;45303;-74
2023/03/25 07:48:55;;;;;;;;;1.75;0.00;;;;;12.42;61.68;100725.84;6279760;22;45514;-74
2023/03/25 07:51:20;;;;;;;;;2.00;0.00;;;;;12.46;61.27;100725.72;6280919;22;45407;-75
2023/03/25 07:53:46;;;;;;;;;1.00;1.00;;;;;12.66;61.36;100757.91;6281801;22;45336;-76
2023/03/25 07:56:12;;;;;;;;;2.75;0.00;;;;;12.56;60.91;100744.06;6253766;22;45419;-76
2023/03/25 07:58:37;;;;;;;;;0.00;0.00;;;;;12.77;61.01;100770.88;6254051;22;45370;-75
2023/03/25 08:01:04;;;;;;;;;2.00;0.00;;;;;12.32;60.97;100699.53;6254168;22;47077;-75
2023/03/25 08:03:30;;;;;;;;;0.00;0.00;;;;;12.45;60.74;100711.47;6281550;22;45429;-75
2023/03/25 08:05:59;;;;;;;;;2.75;0.75;;;;;12.62;60.60;100740.25;6253759;22;45270;-76
2023/03/25 08:08:25;;;;;;;;;1.00;0.00;;;;;12.83;60.63;100772.44;6254281;22;45232;-76
2023/03/25 08:10:50;;;;;;;;;1.25;0.25;;;;;12.76;60.60;100772.69;6253316;22;46894;-76
2023/03/25 08:13:15;;;;;;;;;2.75;0.00;;;;;12.57;60.50;100742.25;6253491;22;45256;-76
2023/03/25 08:15:41;;;;;;;;;5.00;2.00;;;;;12.62;59.99;100726.84;6253918;22;45247;-76
2023/03/25 08:18:06;;;;;;;;;3.25;1.75;;;;;12.75;59.64;100765.59;6251182;22;45363;-74
2023/03/25 08:20:33;;;;;;;;;3.00;1.00;;;;;12.72;59.79;100751.47;6280779;22;46580;-74
2023/03/25 08:22:58;;;;;;;;;2.75;0.00;;;;;12.60;59.83;100732.28;6253565;22;45319;-74
2023/03/25 08:25:24;;;;;;;;;0.00;0.00;;;;;12.60;59.93;100726.06;6279662;22;45397;-76
2023/03/25 08:27:50;;;;;;;;;0.00;0.00;;;;;12.88;59.79;100762.38;6253189;22;45359;-76
2023/03/25 08:30:16;;;;;;;;;0.00;0.00;;;;;12.86;59.70;100764.28;6253884;22;45958;-76
2023/03/25 08:32:45;;;;;;;;;1.25;0.50;;;;;12.94;59.72;100764.81;6253246;22;45311;-74
2023/03/25 08:35:11;;;;;;;;;0.75;0.75;;;;;13.16;59.80;100805.88;6247246;22;45638;-74
2023/03/25 08:37:37;;;;;;;;;2.50;0.00;;;;;12.77;59.69;100722.66;6248188;22;45460;-75
2023/03/25 08:40:10;;;;;;;;;0.00;0.00;;;;;13.15;59.50;100795.22;6248157;22;47461;-75
2023/03/25 08:42:36;;;;;;;;;4.00;1.25;;;;;13.00;59.34;100763.69;6250987;22;45356;-76
2023/03/25 08:45:03;;;;;;;;;1.00;0.00;;;;;13.09;59.41;100784.75;6248586;22;45766;-78
2023/03/25 08:47:29;;;;;;;;;0.25;0.00;;;;;13.02;58.62;100775.25;6244607;22;45520;-69
2023/03/25 08:49:54;;;;;;;;;0.00;0.00;;;;;13.18;59.04;100786.16;6246602;22;45329;-69
2023/03/25 08:52:20;;;;;;;;;3.00;1.00;;;;;13.11;58.52;100785.56;6245082;22;45261;-69
2023/03/25 08:54:45;;;;;;;;;0.00;0.00;;;;;13.15;58.57;100787.19;6240910;22;45560;-69
2023/03/25 08:57:11;;;;;;;;;0.00;0.00;;;;;13.03;58.15;100771.59;6245768;22;45295;-69
2023/03/25 08:59:36;;;;;;;;;0.00;0.00;;;;;13.03;58.17;100768.91;6245749;22;46089;-69
2023/03/25 09:02:02;;;;;;;;;2.00;0.00;;;;;13.03;58.25;100768.91;6243607;22;45483;-73
2023/03/25 09:04:28;;;;;;;;;0.00;0.00;;;;;13.27;58.25;100801.88;6246164;22;45743;-69
2023/03/25 09:06:53;;;;;;;;;0.75;0.00;;;;;13.27;58.12;100807.22;6246719;22;45726;-68
2023/03/25 09:09:19;;;;;;;;;1.00;1.00;;;;;13.20;58.23;100787.84;6246089;22;45422;-67
2023/03/25 09:11:44;;;;;;;;;1.00;0.00;;;;;13.18;58.02;100776.34;6247149;22;45356;-69
2023/03/25 09:14:10;;;;;;;;;0.25;0.25;;;;;13.19;58.03;100775.38;6245292;22;45667;-69
2023/03/25 09:16:35;;;;;;;;;2.25;1.00;;;;;13.20;58.01;100773.56;6244738;22;45461;-71
2023/03/25 09:19:01;;;;;;;;;2.50;0.00;;;;;13.44;58.38;100811.91;6244929;22;45327;-70
2023/03/25 09:21:26;;;;;;;;;0.50;0.00;;;;;13.29;57.87;100782.09;6246520;22;45570;-68
2023/03/25 09:23:52;;;;;;;;;0.00;0.00;;;;;13.42;58.01;100801.22;6246988;22;45323;-68
2023/03/25 09:26:17;;;;;;;;;3.00;0.00;;;;;13.31;57.88;100776.66;6246077;22;45413;-67
2023/03/25 09:28:43;;;;;;;;;0.00;0.00;;;;;13.35;57.58;100772.94;6246383;22;45364;-67
2023/03/25 09:31:09;;;;;;;;;0.00;0.00;;;;;13.62;57.29;100820.97;6246570;22;45464;-68
2023/03/25 09:33:35;;;;;;;;;3.00;0.00;;;;;13.43;57.17;100788.69;6247351;22;45313;-67
2023/03/25 09:36:02;;;;;;;;;2.25;0.00;;;;;13.67;57.59;100822.50;6268571;22;45517;-68
2023/03/25 09:38:27;;;;;;;;;0.00;0.00;;;;;13.58;57.46;100798.78;6278604;22;45318;-68
2023/03/25 09:40:53;;;;;;;;;0.75;0.00;;;;;13.74;56.65;100825.78;6277768;22;45399;-67
2023/03/25 09:43:30;;;;;;;;;2.75;0.50;;;;;13.80;56.57;100838.03;6277642;22;45406;-69
2023/03/25 09:45:58;;;;;;;;;2.25;0.75;;;;;13.61;56.07;100812.03;6251026;22;45252;-68
2023/03/25 09:48:24;;;;;;;;;3.50;0.00;;;;;13.83;56.41;100840.59;6250087;22;47077;-68
2023/03/25 09:50:49;;;;;;;;;0.25;0.25;;;;;13.59;56.77;100803.19;6251072;22;45377;-67
2023/03/25 09:53:22;;;;;;;;;0.00;0.00;;;;;13.80;56.55;100827.31;6278598;22;45244;-70
2023/03/25 09:55:50;;;;;;;;;1.75;0.00;;;;;13.73;56.64;100833.88;6276343;22;45943;-67
2023/03/25 09:58:25;;;;;;;;;0.50;0.00;;;;;13.85;56.17;100854.81;6277869;22;45316;-69
2023/03/25 10:01:12;;;;;;;;;0.00;0.00;;;;;13.69;56.39;100830.47;6278291;22;45333;-69
2023/03/25 10:04:16;;;;;;;;;1.00;0.25;;;;;13.85;56.25;100860.19;6278198;22;45422;-67
2023/03/25 10:07:06;;;;;;;;;2.25;0.50;;;;;13.86;56.25;100861.91;6235780;22;45363;-67
2023/03/25 10:10:16;;;;;;;;;0.25;0.00;;;;;13.88;56.66;100866.28;6250214;22;48650;-67
2023/03/25 10:13:12;;;;;;;;;0.75;0.50;;;;;13.84;56.31;100871.84;6278369;22;45493;-68
2023/03/25 10:15:52;;;;;;;;;1.00;0.00;;;;;13.90;56.23;100876.97;6278711;22;45221;-68
2023/03/25 10:18:31;;;;;;;;;1.00;1.00;;;;;13.90;56.27;100875.13;6278762;22;45267;-67
2023/03/25 10:21:05;;;;;;;;;0.00;0.00;;;;;13.96;56.69;100894.59;6250510;22;47213;-68
2023/03/25 10:23:49;;;;;;;;;2.25;0.75;;;;;13.97;56.26;100861.47;6250240;22;45493;-67
2023/03/25 10:26:36;;;;;;;;;0.00;0.00;;;;;13.96;56.71;100863.25;6250427;22;45290;-68
2023/03/25 10:29:11;;;;;;;;;1.50;0.00;;;;;13.83;56.35;100841.47;6253334;22;45284;-80
2023/03/25 10:31:48;;;;;;;;;1.00;0.00;;;;;14.08;56.55;100875.25;6278171;22;45328;-71
2023/03/25 10:34:17;;;;;;;;;0.00;0.00;;;;;13.89;56.51;100829.59;6277599;22;45711;-71
2023/03/25 10:36:56;;;;;;;;;0.25;0.25;;;;;14.17;56.30;100869.47;6277893;22;45435;-71
2023/03/25 10:39:23;;;;;;;;;0.00;0.00;;;;;14.11;56.40;100853.63;6280421;22;45272;-74
2023/03/25 10:42:02;;;;;;;;;1.25;0.00;;;;;14.02;56.67;100836.16;6278390;22;48291;-78
2023/03/25 10:44:29;;;;;;;;;0.75;0.75;;;;;14.05;56.20;100833.31;6252554;22;45428;-74
2023/03/25 10:47:07;;;;;;;;;0.25;0.00;;;;;14.21;55.99;100856.78;6252839;22;45410;-73
2023/03/25 10:49:35;;;;;;;;;0.00;0.00;;;;;14.02;56.90;100830.78;6279291;22;45256;-70
2023/03/25 10:52:01;;;;;;;;;1.25;0.50;;;;;14.18;56.01;100848.84;6277722;22;45386;-70
2023/03/25 10:54:40;;;;;;;;;2.00;0.00;;;;;14.34;55.53;100857.09;6278112;22;45357;-74
2023/03/25 10:57:08;;;;;;;;;0.75;0.00;;;;;14.23;56.05;100833.41;6250494;22;45305;-70
2023/03/25 10:59:45;;;;;;;;;0.75;0.00;;;;;14.22;56.36;100827.19;6279007;22;45252;-70
2023/03/25 11:02:16;;;;;;;;;1.00;1.00;;;;;14.20;55.61;100817.44;6250937;22;47506;-71
2023/03/25 11:04:44;;;;;;;;;0.00;0.00;;;;;14.45;56.74;100857.47;6279783;22;45232;-71
2023/03/25 11:07:21;;;;;;;;;1.00;0.00;;;;;14.40;56.07;100838.88;6249818;22;45359;-70
2023/03/25 11:09:46;;;;;;;;;1.50;0.00;;;;;14.35;54.72;100830.19;6278910;22;45257;-70
2023/03/25 11:12:17;;;;;;;;;1.00;0.25;;;;;14.58;54.81;100863.13;6249933;22;47111;-74
2023/03/25 11:14:43;;;;;;;;;2.00;0.00;;;;;14.60;54.75;100872.91;6244463;22;45499;-72
2023/03/25 11:17:17;;;;;;;;;2.75;0.50;;;;;14.44;54.97;100829.72;6275109;22;45418;-71
2023/03/25 11:19:51;;;;;;;;;0.50;0.00;;;;;14.45;54.67;100852.97;6249027;22;45232;-71
2023/03/25 11:22:29;;;;;;;;;3.00;1.00;;;;;14.50;55.16;100846.50;6276911;22;45533;-71
2023/03/25 11:25:16;;;;;;;;;2.00;1.00;;;;;14.62;54.80;100860.25;6275073;22;45487;-68
2023/03/25 11:27:48;;;;;;;;;3.00;0.00;;;;;14.65;54.19;100867.31;6275350;22;45777;-68
2023/03/25 11:30:18;;;;;;;;;1.00;0.50;;;;;14.57;54.41;100851.50;6276102;22;45292;-68
2023/03/25 11:32:56;;;;;;;;;1.00;0.00;;;;;14.55;53.80;100839.09;6274630;22;46193;-68
2023/03/25 11:35:25;;;;;;;;;2.00;0.00;;;;;14.78;54.38;100884.59;6273408;22;45327;-68